Time;durP1;ratioP1;P1;durP2;ratioP2;P2;SDS_P1;SDS_P2;PMS_P1;PMS_P2;Temp;Humidity;BMP_temperature;BMP_pressure;BME280_temperature;BME280_humidity;BME280_pressure;Samples;Min_cycle;Max_cycle;Signal;HPM_P1;HPM_P2
2023/05/27 00:02:04;;;;;;;15.40;5.20;;;12.20;99.90;;;;;;4953551;28;20246;-58
2023/05/27 00:04:32;;;;;;;21.60;5.17;;;12.20;99.90;;;;;;4954261;28;20231;-59
2023/05/27 00:07:01;;;;;;;19.23;5.33;;;12.20;99.90;;;;;;4953676;28;20294;-58
2023/05/27 00:09:29;;;;;;;17.43;4.97;;;12.10;99.90;;;;;;4954854;28;20605;-58
2023/05/27 00:11:58;;;;;;;12.30;4.70;;;12.10;99.90;;;;;;4951761;28;20212;-58
2023/05/27 00:14:27;;;;;;;17.70;5.20;;;12.10;99.90;;;;;;4953255;28;20212;-58
2023/05/27 00:16:56;;;;;;;19.00;5.13;;;12.10;99.90;;;;;;4954106;28;20224;-59
2023/05/27 00:19:24;;;;;;;16.50;5.40;;;12.00;99.90;;;;;;4952514;28;20404;-58
2023/05/27 00:21:53;;;;;;;21.00;5.00;;;12.00;99.90;;;;;;4953086;28;20295;-58
2023/05/27 00:24:21;;;;;;;18.53;4.80;;;12.00;99.90;;;;;;4953261;28;20212;-58
2023/05/27 00:26:50;;;;;;;23.37;5.83;;;11.90;99.90;;;;;;4952903;28;20259;-58
2023/05/27 00:29:18;;;;;;;19.70;5.20;;;11.90;99.90;;;;;;4952182;28;20315;-58
2023/05/27 00:31:48;;;;;;;18.77;5.73;;;11.90;99.90;;;;;;4953025;28;20236;-58
2023/05/27 00:34:17;;;;;;;18.67;4.90;;;11.80;99.90;;;;;;4944458;28;20228;-59
2023/05/27 00:36:45;;;;;;;16.37;4.97;;;11.80;99.90;;;;;;4949913;28;20244;-58
2023/05/27 00:39:14;;;;;;;18.57;5.37;;;11.80;99.90;;;;;;4947745;28;20193;-58
2023/05/27 00:41:48;;;;;;;20.63;5.17;;;11.80;99.90;;;;;;4952253;28;20255;-58
2023/05/27 00:44:16;;;;;;;16.63;5.10;;;11.70;99.90;;;;;;4945286;28;20239;-58
2023/05/27 00:46:45;;;;;;;17.07;5.00;;;11.70;99.90;;;;;;4952485;28;20255;-59
2023/05/27 00:49:15;;;;;;;17.50;5.17;;;11.60;99.90;;;;;;4950977;28;20220;-59
2023/05/27 00:51:44;;;;;;;15.47;4.60;;;11.60;99.90;;;;;;4948886;28;20192;-58
2023/05/27 00:54:13;;;;;;;18.03;5.17;;;11.60;99.90;;;;;;4954082;28;20192;-58
2023/05/27 00:56:41;;;;;;;18.33;5.30;;;11.50;99.90;;;;;;4951163;28;20220;-59
2023/05/27 00:59:10;;;;;;;19.07;5.23;;;11.50;99.90;;;;;;4953734;28;20224;-58
2023/05/27 01:01:40;;;;;;;17.50;5.50;;;11.50;99.90;;;;;;4949732;28;20232;-58
2023/05/27 01:04:12;;;;;;;18.13;5.53;;;11.50;99.90;;;;;;4951780;28;20284;-58
2023/05/27 01:06:50;;;;;;;20.77;5.30;;;11.40;99.90;;;;;;4947652;28;20192;-58
2023/05/27 01:09:26;;;;;;;19.50;5.73;;;11.40;99.90;;;;;;4949132;28;20192;-58
2023/05/27 01:12:08;;;;;;;21.00;6.03;;;11.40;99.90;;;;;;4951880;28;20210;-59
2023/05/27 01:14:39;;;;;;;14.67;4.97;;;11.30;99.90;;;;;;4948446;28;20227;-58
2023/05/27 01:17:09;;;;;;;18.13;5.30;;;11.30;99.90;;;;;;4951324;28;20243;-58
2023/05/27 01:19:42;;;;;;;18.47;5.37;;;11.30;99.90;;;;;;4952527;28;20220;-58
2023/05/27 01:22:13;;;;;;;14.97;5.23;;;11.20;99.90;;;;;;4950359;28;20286;-58
2023/05/27 01:24:43;;;;;;;18.00;4.97;;;11.20;99.90;;;;;;4964525;28;20605;-58
2023/05/27 01:27:12;;;;;;;22.53;6.10;;;11.20;99.90;;;;;;4949343;28;20204;-58
2023/05/27 01:29:42;;;;;;;22.63;5.73;;;11.10;99.90;;;;;;4944216;28;20228;-58
2023/05/27 01:32:15;;;;;;;17.50;5.63;;;11.10;99.90;;;;;;4950765;28;20660;-59
2023/05/27 01:34:54;;;;;;;19.03;5.50;;;11.00;99.90;;;;;;4952214;28;20242;-58
2023/05/27 01:37:26;;;;;;;13.37;5.17;;;11.00;99.90;;;;;;4950187;28;20327;-59
2023/05/27 01:39:56;;;;;;;15.63;5.23;;;11.00;99.90;;;;;;4951855;28;20255;-58
2023/05/27 01:42:25;;;;;;;21.73;5.67;;;10.90;99.90;;;;;;4950426;28;20195;-58
2023/05/27 01:44:56;;;;;;;16.00;5.77;;;10.90;99.90;;;;;;4949295;28;20224;-58
2023/05/27 01:47:27;;;;;;;21.20;5.23;;;10.90;99.90;;;;;;4946570;28;20247;-58
2023/05/27 01:49:55;;;;;;;16.60;5.53;;;10.80;99.90;;;;;;4948442;28;20275;-58
2023/05/27 01:52:23;;;;;;;21.93;5.47;;;10.80;99.90;;;;;;4943884;28;20619;-58
2023/05/27 01:54:52;;;;;;;17.43;5.23;;;10.70;99.90;;;;;;4946657;28;20231;-58
2023/05/27 01:57:22;;;;;;;19.77;6.40;;;10.70;99.90;;;;;;4949937;28;20196;-58
2023/05/27 01:59:50;;;;;;;16.03;5.50;;;10.70;99.90;;;;;;4951012;28;20220;-58
2023/05/27 02:02:18;;;;;;;17.03;5.50;;;10.60;99.90;;;;;;4950729;28;20275;-58
2023/05/27 02:04:47;;;;;;;24.63;5.73;;;10.60;99.90;;;;;;4950650;28;20587;-58
2023/05/27 02:07:16;;;;;;;20.07;5.97;;;10.60;99.90;;;;;;4949033;28;20232;-58
2023/05/27 02:09:45;;;;;;;21.87;5.47;;;10.50;99.90;;;;;;4952164;28;20208;-58
2023/05/27 02:12:13;;;;;;;16.10;5.90;;;10.50;99.90;;;;;;4948468;28;20673;-58
2023/05/27 02:14:44;;;;;;;16.00;5.50;;;10.50;99.90;;;;;;4948936;28;20227;-58
2023/05/27 02:17:14;;;;;;;17.43;6.20;;;10.40;99.90;;;;;;4947843;28;20228;-58
2023/05/27 02:19:42;;;;;;;15.80;5.27;;;10.40;99.90;;;;;;4951577;28;20227;-58
2023/05/27 02:22:11;;;;;;;20.67;5.77;;;10.40;99.90;;;;;;4942805;28;20220;-58
2023/05/27 02:24:39;;;;;;;19.73;5.37;;;10.30;99.90;;;;;;4950508;28;20204;-58
2023/05/27 02:27:07;;;;;;;21.93;5.70;;;10.30;99.90;;;;;;4943475;28;20200;-58
2023/05/27 02:29:36;;;;;;;19.50;5.73;;;10.30;99.90;;;;;;4949633;28;20216;-58
2023/05/27 02:32:06;;;;;;;27.60;6.13;;;10.20;99.90;;;;;;4950636;28;20556;-58
2023/05/27 02:34:36;;;;;;;18.67;5.57;;;10.20;99.90;;;;;;4950989;28;20212;-58
2023/05/27 02:37:06;;;;;;;16.93;6.17;;;10.10;99.90;;;;;;4950783;28;20231;-58
2023/05/27 02:39:34;;;;;;;21.73;6.07;;;10.10;99.90;;;;;;4950045;28;20632;-58
2023/05/27 02:42:03;;;;;;;14.93;5.33;;;10.10;99.90;;;;;;4949934;28;20232;-58
2023/05/27 02:44:32;;;;;;;16.97;6.17;;;10.10;99.90;;;;;;4948173;28;20228;-58
2023/05/27 02:47:00;;;;;;;16.93;5.23;;;10.10;99.90;;;;;;4943657;28;20314;-58
2023/05/27 02:49:30;;;;;;;23.07;5.77;;;10.00;99.90;;;;;;4946056;28;20216;-58
2023/05/27 02:51:58;;;;;;;16.80;5.93;;;10.00;99.90;;;;;;4952621;28;20223;-58
2023/05/27 02:54:27;;;;;;;30.77;6.83;;;9.90;99.90;;;;;;4949271;28;20192;-57
2023/05/27 02:56:55;;;;;;;18.30;5.97;;;9.90;99.90;;;;;;4949893;28;20283;-58
2023/05/27 02:59:23;;;;;;;20.60;5.70;;;9.90;99.90;;;;;;4951223;28;20306;-58
2023/05/27 03:01:52;;;;;;;16.77;5.43;;;9.80;99.90;;;;;;4950249;28;20230;-58
2023/05/27 03:04:21;;;;;;;25.20;6.07;;;9.80;99.90;;;;;;4948864;28;20740;-59
2023/05/27 03:06:51;;;;;;;20.70;5.43;;;9.70;99.90;;;;;;4949265;28;20228;-58
2023/05/27 03:09:19;;;;;;;18.97;5.57;;;9.70;99.90;;;;;;4946790;28;20204;-58
2023/05/27 03:11:47;;;;;;;19.67;6.17;;;9.70;99.90;;;;;;4945432;28;20781;-58
2023/05/27 03:14:16;;;;;;;14.47;5.90;;;9.70;99.90;;;;;;4951267;28;20224;-58
2023/05/27 03:16:45;;;;;;;20.67;5.70;;;9.70;99.90;;;;;;4950473;28;20267;-58
2023/05/27 03:19:13;;;;;;;18.13;5.30;;;9.60;99.90;;;;;;4944535;28;20224;-58
2023/05/27 03:21:42;;;;;;;17.43;6.03;;;9.60;99.90;;;;;;4949518;28;20188;-59
2023/05/27 03:24:11;;;;;;;22.10;6.30;;;9.50;99.90;;;;;;4949482;28;20216;-58
2023/05/27 03:26:40;;;;;;;16.87;6.00;;;9.50;99.90;;;;;;4949692;28;20243;-58
2023/05/27 03:29:08;;;;;;;24.77;6.63;;;9.50;99.90;;;;;;4948412;28;20234;-58
2023/05/27 03:31:36;;;;;;;18.83;6.10;;;9.40;99.90;;;;;;4949121;28;20216;-58
2023/05/27 03:34:05;;;;;;;24.80;6.57;;;9.40;99.90;;;;;;4947411;28;20742;-58
2023/05/27 03:36:34;;;;;;;16.60;5.93;;;9.40;99.90;;;;;;4951290;28;20239;-58
2023/05/27 03:39:04;;;;;;;20.90;6.43;;;9.40;99.90;;;;;;4951248;28;20215;-58
2023/05/27 03:41:34;;;;;;;19.73;5.90;;;9.40;99.90;;;;;;4950346;28;20259;-58
2023/05/27 03:44:02;;;;;;;16.10;5.90;;;9.40;99.90;;;;;;4952550;28;20230;-59
2023/05/27 03:46:31;;;;;;;21.33;5.90;;;9.40;99.90;;;;;;4946654;28;20242;-58
2023/05/27 03:48:59;;;;;;;25.43;6.53;;;9.30;99.90;;;;;;4952662;28;20623;-58
2023/05/27 03:51:28;;;;;;;17.10;5.80;;;9.30;99.90;;;;;;4948917;28;20290;-58
2023/05/27 03:53:57;;;;;;;23.60;5.87;;;9.30;99.90;;;;;;4950933;28;20211;-59
2023/05/27 03:56:25;;;;;;;19.43;6.03;;;9.30;99.90;;;;;;4950373;28;20231;-59
2023/05/27 03:58:56;;;;;;;21.87;6.23;;;9.30;99.90;;;;;;4953191;28;20757;-58
2023/05/27 04:01:24;;;;;;;19.63;5.80;;;9.20;99.90;;;;;;4954342;28;20634;-58
2023/05/27 04:03:52;;;;;;;17.47;6.07;;;9.30;99.90;;;;;;4948431;28;20228;-58
2023/05/27 04:06:21;;;;;;;21.83;5.47;;;9.30;99.90;;;;;;4950196;28;20222;-58
2023/05/27 04:08:50;;;;;;;21.07;6.30;;;9.30;99.90;;;;;;4951023;28;20251;-58
2023/05/27 04:11:18;;;;;;;23.17;5.87;;;9.30;99.90;;;;;;4949802;28;20219;-58
2023/05/27 04:13:48;;;;;;;26.97;6.37;;;9.30;99.90;;;;;;4947755;28;20234;-58
2023/05/27 04:16:18;;;;;;;21.83;6.20;;;9.30;99.90;;;;;;4948880;28;20256;-58
2023/05/27 04:18:48;;;;;;;22.80;6.43;;;9.30;99.90;;;;;;4948979;28;20223;-58
2023/05/27 04:21:17;;;;;;;17.70;5.73;;;9.30;99.90;;;;;;4953500;28;20199;-59
2023/05/27 04:23:46;;;;;;;23.37;5.97;;;9.30;99.90;;;;;;4950335;28;20228;-59
2023/05/27 04:26:14;;;;;;;17.90;5.17;;;9.20;99.90;;;;;;4953220;28;20223;-58
2023/05/27 04:28:45;;;;;;;15.83;5.40;;;9.30;99.90;;;;;;4949515;28;20224;-58
2023/05/27 04:31:15;;;;;;;19.00;5.77;;;9.30;99.90;;;;;;4951901;28;20326;-58
2023/05/27 04:33:46;;;;;;;15.80;5.60;;;9.30;99.90;;;;;;4952977;28;20216;-59
2023/05/27 04:36:17;;;;;;;16.70;5.93;;;9.30;99.90;;;;;;4953594;28;20243;-58
2023/05/27 04:38:45;;;;;;;19.50;6.47;;;9.40;99.90;;;;;;4953668;28;20793;-58
2023/05/27 04:41:14;;;;;;;20.13;6.33;;;9.40;99.90;;;;;;4953143;28;20226;-58
2023/05/27 04:43:42;;;;;;;19.93;6.90;;;9.40;99.90;;;;;;4948904;28;20224;-58
2023/05/27 04:46:10;;;;;;;15.23;5.23;;;9.50;99.90;;;;;;4952202;28;20595;-58
2023/05/27 04:48:39;;;;;;;19.87;6.07;;;9.50;99.90;;;;;;4951002;28;20247;-59
2023/05/27 04:51:09;;;;;;;21.90;6.23;;;9.50;99.90;;;;;;4951758;28;20208;-58
2023/05/27 04:53:37;;;;;;;19.53;6.73;;;9.50;99.90;;;;;;4951168;28;20274;-59
2023/05/27 04:56:08;;;;;;;22.73;5.87;;;9.60;99.90;;;;;;4951222;28;20235;-59
2023/05/27 04:58:36;;;;;;;17.40;6.53;;;9.70;99.90;;;;;;4950575;28;20263;-59
2023/05/27 05:01:05;;;;;;;17.87;6.30;;;9.80;99.90;;;;;;4949461;28;20236;-59
2023/05/27 05:03:39;;;;;;;14.00;5.97;;;9.80;99.90;;;;;;4946070;28;20196;-59
2023/05/27 05:06:09;;;;;;;20.03;6.30;;;9.90;99.90;;;;;;4947634;28;20219;-59
2023/05/27 05:08:37;;;;;;;18.80;6.07;;;9.90;99.90;;;;;;4947672;28;20228;-58
2023/05/27 05:11:05;;;;;;;23.13;6.70;;;10.00;99.90;;;;;;4944456;28;20231;-59
2023/05/27 05:13:34;;;;;;;20.03;6.53;;;10.00;99.90;;;;;;4946074;28;20691;-59
2023/05/27 05:16:02;;;;;;;22.17;6.17;;;10.20;99.90;;;;;;4946163;28;20634;-58
2023/05/27 05:18:30;;;;;;;15.80;6.10;;;10.30;99.90;;;;;;4947045;28;20263;-57
2023/05/27 05:20:59;;;;;;;20.03;6.90;;;10.40;99.90;;;;;;4947438;28;20192;-58
2023/05/27 05:23:29;;;;;;;17.73;6.20;;;10.40;99.90;;;;;;4946771;28;20315;-59
2023/05/27 05:26:05;;;;;;;19.33;6.27;;;10.50;99.90;;;;;;4945980;28;20228;-58
2023/05/27 05:28:35;;;;;;;19.40;6.67;;;10.60;99.90;;;;;;4947993;28;20315;-59
2023/05/27 05:31:03;;;;;;;19.97;6.90;;;10.70;99.90;;;;;;4946445;28;20243;-59
2023/05/27 05:33:31;;;;;;;16.37;6.50;;;10.80;99.90;;;;;;4947007;28;20192;-58
2023/05/27 05:36:00;;;;;;;21.47;6.57;;;10.80;99.90;;;;;;4946860;28;20298;-59
2023/05/27 05:38:30;;;;;;;26.53;6.43;;;10.90;99.90;;;;;;4951119;28;20220;-59
2023/05/27 05:40:58;;;;;;;16.37;6.00;;;10.90;99.90;;;;;;4944910;28;20235;-59
2023/05/27 05:43:27;;;;;;;20.27;6.27;;;11.00;99.90;;;;;;4944517;28;20330;-59
2023/05/27 05:45:55;;;;;;;20.70;6.13;;;11.20;99.90;;;;;;4941771;28;20229;-59
2023/05/27 05:48:23;;;;;;;20.27;6.87;;;11.30;99.90;;;;;;4945657;28;20300;-59
2023/05/27 05:50:52;;;;;;;20.07;6.80;;;11.40;99.90;;;;;;4948784;29;20274;-59
2023/05/27 05:53:21;;;;;;;17.77;7.00;;;11.40;99.90;;;;;;4945719;28;20228;-60
2023/05/27 05:55:50;;;;;;;21.33;6.13;;;11.40;99.90;;;;;;4947194;28;20295;-59
2023/05/27 05:58:19;;;;;;;25.03;7.27;;;11.50;99.90;;;;;;4952693;28;20224;-59
2023/05/27 06:00:47;;;;;;;21.37;7.20;;;11.60;99.90;;;;;;4946303;28;20975;-59
2023/05/27 06:03:15;;;;;;;22.57;7.40;;;11.70;99.90;;;;;;4949436;28;20275;-59
2023/05/27 06:05:44;;;;;;;20.63;6.30;;;11.70;99.90;;;;;;4944078;28;21935;-60
2023/05/27 06:08:12;;;;;;;20.93;6.60;;;11.80;99.90;;;;;;4945015;28;20738;-59
2023/05/27 06:10:41;;;;;;;17.40;6.33;;;11.90;99.90;;;;;;4948928;28;20567;-59
2023/05/27 06:13:11;;;;;;;24.47;7.30;;;12.10;99.90;;;;;;4951037;28;20669;-59
2023/05/27 06:15:39;;;;;;;18.90;6.50;;;12.20;99.90;;;;;;4944337;28;20188;-59
2023/05/27 06:18:07;;;;;;;20.10;6.60;;;12.30;99.90;;;;;;4948280;28;20211;-59
2023/05/27 06:20:36;;;;;;;20.20;7.10;;;12.40;99.90;;;;;;4951463;28;20222;-59
2023/05/27 06:23:05;;;;;;;20.17;6.90;;;12.50;99.90;;;;;;4946740;28;20270;-59
2023/05/27 06:25:33;;;;;;;21.13;6.40;;;12.60;99.90;;;;;;4944616;28;20236;-59
2023/05/27 06:28:02;;;;;;;13.70;5.97;;;12.60;99.90;;;;;;4946716;28;20591;-59
2023/05/27 06:30:32;;;;;;;17.57;6.47;;;12.70;99.90;;;;;;4946998;28;20648;-59
2023/05/27 06:33:01;;;;;;;17.47;6.40;;;12.80;99.90;;;;;;4953088;28;20309;-59
2023/05/27 06:35:29;;;;;;;17.07;6.63;;;12.90;99.90;;;;;;4949962;28;20718;-58
2023/05/27 06:37:59;;;;;;;14.33;6.30;;;13.10;99.90;;;;;;4951691;28;20228;-59
2023/05/27 06:40:27;;;;;;;12.63;5.57;;;13.20;99.90;;;;;;4948500;28;20219;-59
2023/05/27 06:42:56;;;;;;;18.17;6.67;;;13.20;99.90;;;;;;4949957;28;20219;-59
2023/05/27 06:45:24;;;;;;;14.73;6.03;;;13.20;99.90;;;;;;4947798;28;20219;-59
2023/05/27 06:47:54;;;;;;;21.30;7.33;;;13.40;99.90;;;;;;4948995;28;20226;-59
2023/05/27 06:50:23;;;;;;;21.63;6.93;;;13.40;99.90;;;;;;4948910;28;20279;-59
2023/05/27 06:52:51;;;;;;;15.57;6.40;;;13.50;99.90;;;;;;4952208;28;20590;-59
2023/05/27 06:55:20;;;;;;;25.63;7.00;;;13.50;99.90;;;;;;4948068;28;20216;-59
2023/05/27 06:57:49;;;;;;;18.70;6.40;;;13.60;99.90;;;;;;4948802;28;20219;-59
2023/05/27 07:00:17;;;;;;;17.73;6.47;;;13.70;99.90;;;;;;4948476;28;20188;-59
2023/05/27 07:02:46;;;;;;;19.53;6.30;;;13.90;99.90;;;;;;4951071;28;20594;-59
2023/05/27 07:05:16;;;;;;;18.60;6.43;;;14.10;99.90;;;;;;4949801;28;20274;-59
2023/05/27 07:07:44;;;;;;;15.87;6.20;;;14.30;99.90;;;;;;4949208;28;20287;-59
2023/05/27 07:10:13;;;;;;;15.63;6.23;;;14.50;99.90;;;;;;4945429;28;20592;-59
2023/05/27 07:12:41;;;;;;;20.33;6.33;;;14.70;99.90;;;;;;4949717;28;20195;-59
2023/05/27 07:15:10;;;;;;;16.57;6.60;;;14.80;99.90;;;;;;4955858;28;20210;-59
2023/05/27 07:17:38;;;;;;;20.93;6.63;;;15.00;99.90;;;;;;4955637;28;20222;-59
2023/05/27 07:20:08;;;;;;;21.33;6.73;;;15.20;99.90;;;;;;4953752;28;20971;-59
2023/05/27 07:22:38;;;;;;;15.10;5.57;;;15.20;99.90;;;;;;4958410;28;20263;-59
2023/05/27 07:25:10;;;;;;;17.93;6.00;;;15.20;99.90;;;;;;4954683;28;20224;-59
2023/05/27 07:27:38;;;;;;;16.73;5.90;;;15.30;99.90;;;;;;4950426;28;20565;-59
2023/05/27 07:30:08;;;;;;;22.53;5.60;;;15.40;99.90;;;;;;4950846;28;20197;-59
2023/05/27 07:32:37;;;;;;;22.57;6.93;;;15.50;99.90;;;;;;4948151;28;20232;-59
2023/05/27 07:35:06;;;;;;;13.50;5.60;;;15.60;99.90;;;;;;4953584;28;20815;-60
2023/05/27 07:37:35;;;;;;;16.67;5.57;;;15.60;99.90;;;;;;4949415;28;20619;-59
2023/05/27 07:40:06;;;;;;;18.70;6.10;;;15.70;99.90;;;;;;4947506;28;20241;-59
2023/05/27 07:42:34;;;;;;;17.93;5.87;;;15.80;99.90;;;;;;4943165;28;20208;-59
2023/05/27 07:45:03;;;;;;;14.57;5.90;;;16.00;99.90;;;;;;4952406;28;20574;-59
2023/05/27 07:47:32;;;;;;;21.73;6.27;;;16.10;99.90;;;;;;4951849;28;20234;-59
2023/05/27 07:50:00;;;;;;;16.80;5.70;;;16.20;99.90;;;;;;4954518;28;20680;-59
2023/05/27 07:52:28;;;;;;;13.63;5.87;;;16.40;99.90;;;;;;4954698;28;20242;-60
2023/05/27 07:54:57;;;;;;;25.40;6.07;;;16.60;99.90;;;;;;4954545;28;20224;-59
2023/05/27 07:57:27;;;;;;;18.00;6.00;;;16.80;99.90;;;;;;4953290;28;20198;-59
2023/05/27 07:59:55;;;;;;;16.67;6.07;;;16.90;99.90;;;;;;4953649;28;20231;-60
2023/05/27 08:02:25;;;;;;;20.53;6.23;;;16.90;99.90;;;;;;4954574;28;20259;-60
2023/05/27 08:04:53;;;;;;;13.20;5.37;;;17.10;99.90;;;;;;4954758;28;20219;-60
2023/05/27 08:07:22;;;;;;;17.73;6.00;;;17.30;99.90;;;;;;4953513;28;20598;-59
2023/05/27 08:09:51;;;;;;;20.50;6.37;;;17.30;99.90;;;;;;4949104;28;20885;-60
2023/05/27 08:12:19;;;;;;;20.20;5.50;;;17.40;99.90;;;;;;4952400;28;20212;-60
2023/05/27 08:14:49;;;;;;;17.43;6.17;;;17.50;99.90;;;;;;4952664;28;20711;-60
2023/05/27 08:17:18;;;;;;;13.60;5.50;;;17.80;99.90;;;;;;4956952;28;20645;-60
2023/05/27 08:19:46;;;;;;;23.80;6.37;;;17.80;99.90;;;;;;4951675;28;20282;-60
2023/05/27 08:22:15;;;;;;;14.53;5.30;;;17.90;99.90;;;;;;4950829;28;20225;-60
2023/05/27 08:24:43;;;;;;;19.10;5.83;;;18.00;99.90;;;;;;4947587;28;20192;-59
2023/05/27 08:27:16;;;;;;;16.10;5.90;;;18.20;99.90;;;;;;4952480;28;20302;-60
2023/05/27 08:29:44;;;;;;;16.73;5.70;;;18.30;99.90;;;;;;4951459;28;20314;-60
2023/05/27 08:32:14;;;;;;;15.07;5.70;;;18.80;99.90;;;;;;4953893;28;20417;-60
2023/05/27 08:34:42;;;;;;;16.07;6.37;;;18.70;99.90;;;;;;4950692;28;21214;-60
2023/05/27 08:37:11;;;;;;;18.50;6.00;;;18.90;99.90;;;;;;4948546;28;20230;-60
2023/05/27 08:39:40;;;;;;;18.17;5.83;;;19.10;99.90;;;;;;4950143;28;20199;-60
2023/05/27 08:42:08;;;;;;;13.80;5.40;;;19.30;99.90;;;;;;4953937;28;20219;-60
2023/05/27 08:44:37;;;;;;;12.33;5.80;;;19.50;99.90;;;;;;4954814;28;20228;-60
2023/05/27 08:47:06;;;;;;;13.80;5.43;;;19.80;99.90;;;;;;4949189;28;20589;-60
2023/05/27 08:49:36;;;;;;;14.73;5.50;;;19.90;99.90;;;;;;4946442;28;20314;-60
2023/05/27 08:52:06;;;;;;;14.27;5.83;;;20.10;99.90;;;;;;4947839;28;20224;-60
2023/05/27 08:54:36;;;;;;;16.27;6.03;;;20.40;99.90;;;;;;4952960;28;20193;-60
2023/05/27 08:57:08;;;;;;;16.77;6.20;;;20.50;99.90;;;;;;4950751;28;20274;-61
2023/05/27 08:59:37;;;;;;;16.40;6.30;;;20.50;99.90;;;;;;4947824;28;20250;-60
2023/05/27 09:02:12;;;;;;;13.87;5.70;;;20.50;99.90;;;;;;4950380;28;20294;-60
2023/05/27 09:04:42;;;;;;;15.57;5.37;;;20.80;99.90;;;;;;4949500;28;20230;-60
2023/05/27 09:07:11;;;;;;;19.03;5.63;;;21.00;99.90;;;;;;4951324;28;20232;-61
2023/05/27 09:09:40;;;;;;;19.43;5.30;;;21.40;99.90;;;;;;4950941;28;20832;-61
2023/05/27 09:12:09;;;;;;;15.63;5.60;;;21.90;99.90;;;;;;4947439;28;20579;-61
2023/05/27 09:14:38;;;;;;;15.82;4.90;;;22.40;99.90;;;;;;4949844;28;20225;-60
2023/05/27 09:17:08;;;;;;;11.65;5.20;;;22.60;99.90;;;;;;4944103;28;20281;-60
2023/05/27 09:19:37;;;;;;;16.42;6.53;;;22.80;99.90;;;;;;4942529;28;20288;-60
2023/05/27 09:22:06;;;;;;;16.55;5.28;;;22.90;99.90;;;;;;4953335;28;20254;-60
2023/05/27 09:24:35;;;;;;;13.95;5.25;;;23.10;99.90;;;;;;4948783;28;20201;-60
2023/05/27 09:27:04;;;;;;;17.00;6.07;;;23.60;99.90;;;;;;4944804;28;20203;-61
2023/05/27 09:29:34;;;;;;;10.35;5.80;;;23.80;99.90;;;;;;4949005;28;20695;-61
2023/05/27 09:32:03;;;;;;;17.95;5.63;;;23.50;99.90;;;;;;4944645;28;22140;-61
2023/05/27 09:34:38;;;;;;;16.20;4.82;;;23.70;99.90;;;;;;4946636;28;20612;-61
2023/05/27 09:37:14;;;;;;;18.45;5.90;;;24.10;99.90;;;;;;4950949;28;20240;-60
2023/05/27 09:39:43;;;;;;;17.75;5.88;;;24.20;99.90;;;;;;4949427;28;20203;-61
2023/05/27 09:42:11;;;;;;;14.00;5.28;;;24.50;99.90;;;;;;4949608;28;20200;-60
2023/05/27 09:44:40;;;;;;;14.38;5.85;;;24.60;99.90;;;;;;4949099;28;20249;-61
2023/05/27 09:47:10;;;;;;;13.57;5.43;;;24.60;99.90;;;;;;4950011;28;20853;-61
2023/05/27 09:49:39;;;;;;;16.80;5.53;;;24.70;99.90;;;;;;4952146;28;20926;-61
2023/05/27 09:52:11;;;;;;;18.67;5.93;;;24.70;99.90;;;;;;4952408;28;20223;-60
2023/05/27 09:54:40;;;;;;;11.13;4.95;;;24.90;99.90;;;;;;4946758;28;20199;-61
2023/05/27 09:57:09;;;;;;;14.60;5.28;;;25.30;99.90;;;;;;4951958;28;20198;-60
2023/05/27 09:59:39;;;;;;;11.20;5.55;;;25.40;99.90;;;;;;4950625;28;20234;-61
2023/05/27 10:02:08;;;;;;;16.27;5.53;;;25.20;99.90;;;;;;4948294;28;20851;-60
2023/05/27 10:04:38;;;;;;;15.43;5.00;;;25.20;99.90;;;;;;4947575;28;20230;-61
2023/05/27 10:07:08;;;;;;;18.27;5.35;;;25.30;99.90;;;;;;4946777;28;20235;-60
2023/05/27 10:09:39;;;;;;;12.52;4.78;;;25.50;99.90;;;;;;4949976;28;20211;-60
2023/05/27 10:12:08;;;;;;;10.68;4.45;;;25.40;99.90;;;;;;4948066;28;21065;-60
2023/05/27 10:14:38;;;;;;;14.63;4.97;;;25.60;99.90;;;;;;4948878;28;20230;-60
2023/05/27 10:17:07;;;;;;;12.02;4.90;;;25.60;99.90;;;;;;4949308;28;20234;-60
2023/05/27 10:19:35;;;;;;;13.30;4.90;;;25.80;99.90;;;;;;4945320;28;20317;-61
2023/05/27 10:22:11;;;;;;;14.57;5.53;;;25.90;99.90;;;;;;4948130;28;20743;-61
2023/05/27 10:24:40;;;;;;;12.68;5.35;;;26.20;99.90;;;;;;4946386;28;20203;-61
2023/05/27 10:27:10;;;;;;;9.30;5.07;;;26.20;99.90;;;;;;4948054;28;20192;-60
2023/05/27 10:29:39;;;;;;;14.50;5.20;;;26.30;99.90;;;;;;4943194;28;20227;-60
2023/05/27 10:32:08;;;;;;;13.23;5.50;;;26.20;99.90;;;;;;4944424;28;20235;-61
2023/05/27 10:34:37;;;;;;;11.13;5.15;;;26.30;99.90;;;;;;4951711;28;20230;-60
2023/05/27 10:37:06;;;;;;;17.27;5.72;;;26.20;99.90;;;;;;4948441;28;20229;-61
2023/05/27 10:39:36;;;;;;;15.52;5.00;;;26.10;99.90;;;;;;4935034;28;20214;-60
2023/05/27 10:42:05;;;;;;;13.02;5.22;;;26.00;99.90;;;;;;4944946;28;20204;-60
2023/05/27 10:44:35;;;;;;;14.95;5.35;;;26.00;99.90;;;;;;4952831;28;20618;-60
2023/05/27 10:47:05;;;;;;;12.00;5.45;;;25.80;99.90;;;;;;4948037;28;20230;-60
2023/05/27 10:49:37;;;;;;;16.58;5.45;;;25.70;99.90;;;;;;4950791;28;20248;-60
2023/05/27 10:52:12;;;;;;;12.43;5.15;;;25.80;99.90;;;;;;4949754;28;20744;-60
2023/05/27 10:54:45;;;;;;;12.23;5.00;;;26.00;99.90;;;;;;4946050;28;20640;-60
2023/05/27 10:57:14;;;;;;;10.55;5.60;;;26.30;99.90;;;;;;4949660;28;20220;-60
2023/05/27 10:59:49;;;;;;;14.93;5.15;;;26.70;99.90;;;;;;4946112;28;20252;-60
2023/05/27 11:02:24;;;;;;;16.20;5.45;;;26.10;99.90;;;;;;4942028;28;20231;-60
2023/05/27 11:04:52;;;;;;;13.45;5.30;;;25.70;99.90;;;;;;4944950;28;20228;-60
2023/05/27 11:07:22;;;;;;;17.33;5.93;;;25.10;99.90;;;;;;4947345;28;20230;-59
2023/05/27 11:09:53;;;;;;;15.43;5.47;;;25.00;99.90;;;;;;4948628;28;20242;-59
2023/05/27 11:12:23;;;;;;;11.38;5.40;;;25.10;99.90;;;;;;4943984;28;20206;-59
2023/05/27 11:14:52;;;;;;;10.57;4.93;;;25.20;99.90;;;;;;4947206;28;20212;-60
2023/05/27 11:17:21;;;;;;;14.90;5.63;;;25.20;99.90;;;;;;4947858;28;20318;-59
2023/05/27 11:19:50;;;;;;;12.57;4.80;;;25.20;99.90;;;;;;4947936;28;20259;-59
2023/05/27 11:22:19;;;;;;;15.73;5.37;;;25.20;99.90;;;;;;4947990;28;20235;-60
2023/05/27 11:24:58;;;;;;;18.33;5.20;;;25.20;99.90;;;;;;4948748;28;20294;-59
2023/05/27 11:27:35;;;;;;;13.67;4.80;;;25.00;99.90;;;;;;4947998;28;20204;-60
2023/05/27 11:30:09;;;;;;;13.13;4.93;;;25.10;99.90;;;;;;4936388;28;20733;-60
2023/05/27 11:32:38;;;;;;;11.00;4.63;;;24.90;99.90;;;;;;4949631;28;20236;-59
2023/05/27 11:35:13;;;;;;;10.17;4.30;;;25.10;99.90;;;;;;4946275;28;20223;-59
2023/05/27 11:37:41;;;;;;;11.70;4.77;;;25.20;99.90;;;;;;4947817;28;20224;-59
2023/05/27 11:40:13;;;;;;;16.30;5.57;;;24.70;99.90;;;;;;4949663;28;20240;-59
2023/05/27 11:42:46;;;;;;;13.03;5.00;;;24.60;99.90;;;;;;4949021;28;20205;-59
2023/05/27 11:45:19;;;;;;;13.07;4.70;;;24.90;99.90;;;;;;4949968;28;20236;-59
2023/05/27 11:47:50;;;;;;;12.67;4.47;;;25.00;99.90;;;;;;4945027;28;20228;-59
2023/05/27 11:50:21;;;;;;;10.20;4.20;;;25.20;99.90;;;;;;4946783;28;20263;-59
2023/05/27 11:52:53;;;;;;;14.03;5.03;;;24.90;99.90;;;;;;4949455;28;20220;-59
2023/05/27 11:55:24;;;;;;;15.77;4.93;;;24.80;99.90;;;;;;4946131;28;20247;-59
2023/05/27 11:57:52;;;;;;;12.37;5.10;;;24.90;99.90;;;;;;4948787;28;20237;-59
2023/05/27 12:00:21;;;;;;;15.63;5.13;;;25.00;99.90;;;;;;4951854;28;20188;-59
2023/05/27 12:02:49;;;;;;;14.27;5.00;;;25.00;99.90;;;;;;4950463;28;20224;-59
2023/05/27 12:05:17;;;;;;;8.70;4.50;;;24.90;99.90;;;;;;4951468;28;20397;-59
2023/05/27 12:08:01;;;;;;;12.87;4.77;;;24.90;99.90;;;;;;4951037;28;20279;-59
2023/05/27 12:10:31;;;;;;;11.47;4.83;;;24.90;99.90;;;;;;4952082;28;20220;-59
2023/05/27 12:13:04;;;;;;;13.00;5.00;;;24.90;99.90;;;;;;4943234;28;20943;-59
2023/05/27 12:15:32;;;;;;;12.70;4.67;;;24.60;99.90;;;;;;4947915;28;20211;-59
2023/05/27 12:18:01;;;;;;;12.73;5.13;;;24.60;99.90;;;;;;4954148;28;20238;-59
2023/05/27 12:20:32;;;;;;;9.57;4.67;;;24.20;99.90;;;;;;4948848;28;20228;-59
2023/05/27 12:23:01;;;;;;;11.57;5.07;;;24.00;99.90;;;;;;4945400;28;20227;-59
2023/05/27 12:25:29;;;;;;;13.17;4.40;;;23.80;99.90;;;;;;4948124;28;20588;-59
2023/05/27 12:27:59;;;;;;;13.10;4.83;;;23.90;99.90;;;;;;4950407;28;20230;-59
2023/05/27 12:30:27;;;;;;;11.50;4.30;;;23.80;99.90;;;;;;4947783;28;20210;-59
2023/05/27 12:32:55;;;;;;;15.37;5.13;;;23.90;99.90;;;;;;4951507;28;20206;-59
2023/05/27 12:35:24;;;;;;;17.70;4.57;;;23.90;99.90;;;;;;4954279;28;20225;-59
2023/05/27 12:37:52;;;;;;;11.17;4.43;;;24.20;99.90;;;;;;4949999;28;20228;-59
2023/05/27 12:40:20;;;;;;;10.53;4.20;;;24.40;99.90;;;;;;4954950;28;20253;-59
2023/05/27 12:42:49;;;;;;;10.27;4.57;;;24.30;99.90;;;;;;4947299;28;20226;-59
2023/05/27 12:45:21;;;;;;;12.33;5.10;;;24.30;99.90;;;;;;4951681;28;20221;-59
2023/05/27 12:47:50;;;;;;;15.57;4.90;;;24.30;99.90;;;;;;4949899;28;20243;-59
2023/05/27 12:50:19;;;;;;;11.40;5.03;;;24.30;99.90;;;;;;4948282;28;20251;-59